Pagina principale
METAR-TAF:

METAR-TAF

Aeroporti :

Aeroporto di Bristol

Bristol, Inghilterra

latitudine: 51-23N, longitudine: 002-43W, altezza: 189 m

Osservazione

Il bollettino è stato emesso 31 minuti fa, alle 17:20 UTC
Vento 11 kt da est
Temperature 23°C
Umidità 31%
Pressione 1021 hPa
Visibilità 10 km o più

METAR: EGGD 311720Z AUTO 08011KT 9999 NCD 23/05 Q1021

Ora: 18:51 (17:51 UTC)

Previsione

Il bollettino è stato emesso 51 minuti fa, alle 17:00 UTC
Previsione valida dal 31 alle 18 UTC al 01 alle 18 UTC
Vento 12 kt da est
Visibilità 10 km o più
nessuna nube inferiore a 1500 m e nessun cumulonembo
Probabilità 30% :
Temporaneamente
dal 31 alle 18 UTC al 01 alle 06 UTC
Vento 15 kt da est con raffiche fino a 25 kt
Evoluzione graduale
dal 01 alle 06 UTC al 01 alle 09 UTC
Vento 6 kt da nord/nord-est

TAF: EGGD 311700Z 3118/0118 09012KT CAVOK PROB30 TEMPO 3118/0106 10015G25KT BECMG 0106/0109 03006KT

Osservazioni e previsioni meteorologiche di più di 4000 aeroporti (messaggi METAR e TAF).

Le stazioni disponibili sono rappresentate dai dischi gialli e rossi sulla carta.

Puntare il mouse per vedere il nome della stazione.

Clicca sopra per visualizzare le osservazioni e previsioni meteorologiche.

Per cambiare la mappa : fare clic sui pulsanti verdi con una croce nera per ingrandire, il pulsante verde con un trattino per diminuire, o sulla freccia verde per le mappe adiacenti.


METAR-TAF: